createdAt,value
2018-09-23T00:01:39.872Z,22.30
2018-09-23T00:04:08.327Z,14.20
2018-09-23T00:06:37.032Z,20.30
2018-09-23T00:09:07.162Z,16.63
2018-09-23T00:11:35.341Z,21.37
2018-09-23T00:14:04.164Z,16.90
2018-09-23T00:16:32.573Z,23.37
2018-09-23T00:19:00.800Z,24.90
2018-09-23T00:21:29.516Z,25.77
2018-09-23T00:23:58.389Z,18.63
2018-09-23T00:26:26.939Z,14.73
2018-09-23T00:28:55.115Z,15.80
2018-09-23T00:31:23.718Z,19.67
2018-09-23T00:33:52.408Z,17.00
2018-09-23T00:36:20.837Z,19.30
2018-09-23T00:38:49.484Z,22.90
2018-09-23T00:41:17.673Z,19.20
2018-09-23T00:43:46.480Z,21.70
2018-09-23T00:46:15.270Z,20.07
2018-09-23T00:48:43.862Z,28.97
2018-09-23T00:51:14.132Z,17.80
2018-09-23T00:53:42.315Z,16.20
2018-09-23T00:56:11.205Z,17.23
2018-09-23T00:58:39.888Z,16.10
2018-09-23T01:01:08.936Z,17.90
2018-09-23T01:03:37.839Z,19.53
2018-09-23T01:06:06.737Z,15.27
2018-09-23T01:08:35.817Z,15.90
2018-09-23T01:11:04.422Z,17.60
2018-09-23T01:13:33.162Z,9.80
2018-09-23T01:16:01.781Z,14.53
2018-09-23T01:18:30.394Z,18.70
2018-09-23T01:20:59.872Z,15.90
2018-09-23T01:23:28.490Z,12.20
2018-09-23T01:25:57.254Z,13.63
2018-09-23T01:28:25.925Z,24.83
2018-09-23T01:30:54.624Z,15.90
2018-09-23T01:33:22.772Z,15.97
2018-09-23T01:35:51.200Z,12.60
2018-09-23T01:38:19.817Z,10.80
2018-09-23T01:40:47.997Z,13.03
2018-09-23T01:43:16.785Z,13.67
2018-09-23T01:45:45.306Z,15.40
2018-09-23T01:48:13.839Z,19.90
2018-09-23T01:50:42.667Z,10.10
2018-09-23T01:53:11.265Z,9.30
2018-09-23T01:55:39.962Z,11.33
2018-09-23T01:58:08.492Z,9.90
2018-09-23T02:00:37.141Z,11.60
2018-09-23T02:03:06.114Z,19.83
2018-09-23T02:05:34.305Z,15.13
2018-09-23T02:08:02.504Z,12.83
2018-09-23T02:10:30.687Z,11.40
2018-09-23T02:12:58.979Z,10.70
2018-09-23T02:15:27.199Z,12.70
2018-09-23T02:17:55.760Z,12.30
2018-09-23T02:20:23.921Z,7.73
2018-09-23T02:22:52.129Z,14.20
2018-09-23T02:25:20.289Z,8.60
2018-09-23T02:27:48.449Z,13.43
2018-09-23T02:30:16.636Z,11.40
2018-09-23T02:32:44.799Z,12.13
2018-09-23T02:35:13.000Z,16.83
2018-09-23T02:37:42.095Z,12.70
2018-09-23T02:40:10.837Z,11.40
2018-09-23T02:42:38.996Z,12.40
2018-09-23T02:45:07.157Z,9.07
2018-09-23T02:47:36.353Z,11.27
2018-09-23T02:50:04.517Z,10.13
2018-09-23T02:52:33.568Z,12.00
2018-09-23T02:55:01.745Z,21.07
2018-09-23T02:57:29.905Z,14.73
2018-09-23T02:59:58.103Z,19.50
2018-09-23T03:02:26.268Z,11.00
2018-09-23T03:04:54.443Z,14.23
2018-09-23T03:07:23.393Z,14.47
2018-09-23T03:09:52.248Z,9.60
2018-09-23T03:12:20.404Z,10.77
2018-09-23T03:14:49.432Z,12.17
2018-09-23T03:17:17.634Z,11.80
2018-09-23T03:19:45.822Z,14.87
2018-09-23T03:22:14.790Z,14.43
2018-09-23T03:24:42.960Z,14.83
2018-09-23T03:27:11.097Z,19.67
2018-09-23T03:29:39.289Z,9.50
2018-09-23T03:32:08.120Z,8.20
2018-09-23T03:34:36.346Z,10.13
2018-09-23T03:37:04.552Z,10.40
2018-09-23T03:39:32.697Z,15.53
2018-09-23T03:42:00.964Z,5.77
2018-09-23T03:44:29.115Z,5.47
2018-09-23T03:46:57.309Z,10.90
2018-09-23T03:49:25.594Z,10.73
2018-09-23T03:51:53.771Z,4.50
2018-09-23T03:54:25.245Z,13.80
2018-09-23T03:56:53.467Z,6.40
2018-09-23T03:59:22.419Z,7.43
2018-09-23T04:01:50.564Z,9.47
2018-09-23T04:04:19.719Z,7.10
2018-09-23T04:06:47.854Z,4.87
2018-09-23T04:09:16.025Z,7.17
2018-09-23T04:11:44.466Z,5.83
2018-09-23T04:14:12.642Z,6.97
2018-09-23T04:16:40.780Z,5.40
2018-09-23T04:19:08.973Z,5.03
2018-09-23T04:21:37.178Z,4.90
2018-09-23T04:24:05.346Z,3.23
2018-09-23T04:26:33.573Z,5.47
2018-09-23T04:29:01.752Z,4.27
2018-09-23T04:31:29.920Z,7.60
2018-09-23T04:33:58.117Z,7.23
2018-09-23T04:36:26.290Z,5.20
2018-09-23T04:38:54.608Z,2.90
2018-09-23T04:41:22.739Z,2.43
2018-09-23T04:43:50.924Z,3.30
2018-09-23T04:46:19.117Z,4.10
2018-09-23T04:48:47.279Z,9.23
2018-09-23T04:51:15.456Z,3.40
2018-09-23T04:53:44.333Z,3.50
2018-09-23T04:56:12.913Z,3.50
2018-09-23T04:58:41.349Z,3.20
2018-09-23T05:01:09.549Z,2.40
2018-09-23T05:03:38.172Z,3.53
2018-09-23T05:06:06.949Z,4.27
2018-09-23T05:08:35.869Z,7.70
2018-09-23T05:11:04.774Z,3.80
2018-09-23T05:13:32.912Z,3.30
2018-09-23T05:16:01.128Z,3.10
2018-09-23T05:18:29.273Z,2.27
2018-09-23T05:20:58.324Z,2.33
2018-09-23T05:23:26.557Z,4.57
2018-09-23T05:25:54.725Z,3.17
2018-09-23T05:28:23.002Z,2.27
2018-09-23T05:30:51.221Z,2.23
2018-09-23T05:33:19.332Z,2.00
2018-09-23T05:35:47.488Z,3.17
2018-09-23T05:38:15.666Z,3.43
2018-09-23T05:40:43.850Z,2.37
2018-09-23T05:43:12.533Z,2.53
2018-09-23T05:45:40.652Z,3.63
2018-09-23T05:48:09.800Z,8.10
2018-09-23T05:50:37.964Z,3.40
2018-09-23T05:53:06.139Z,2.37
2018-09-23T05:55:34.349Z,2.13
2018-09-23T05:58:02.509Z,2.20
2018-09-23T06:00:34.947Z,3.10
2018-09-23T06:03:03.175Z,2.40
2018-09-23T06:05:37.913Z,2.63
2018-09-23T06:08:06.060Z,4.87
2018-09-23T06:10:34.220Z,3.93
2018-09-23T06:13:03.253Z,4.13
2018-09-23T06:15:31.435Z,3.87
2018-09-23T06:17:59.584Z,2.80
2018-09-23T06:20:27.748Z,5.80
2018-09-23T06:22:55.957Z,2.10
2018-09-23T06:25:24.248Z,2.13
2018-09-23T06:27:53.150Z,3.43
2018-09-23T06:30:21.330Z,2.17
2018-09-23T06:32:49.500Z,2.93
2018-09-23T06:35:18.256Z,2.20
2018-09-23T06:37:46.391Z,2.70
2018-09-23T06:40:15.323Z,4.50
2018-09-23T06:42:43.989Z,3.10
2018-09-23T06:45:12.165Z,2.83
2018-09-23T06:47:40.301Z,2.07
2018-09-23T06:50:08.545Z,3.13
2018-09-23T06:52:36.711Z,1.40
2018-09-23T06:55:05.272Z,2.80
2018-09-23T06:57:34.009Z,3.63
2018-09-23T07:00:02.177Z,2.97
2018-09-23T07:02:31.124Z,1.97
2018-09-23T07:04:59.323Z,1.57
2018-09-23T07:07:27.424Z,2.60
2018-09-23T07:09:55.589Z,1.33
2018-09-23T07:12:24.350Z,1.90
2018-09-23T07:14:52.556Z,2.00
2018-09-23T07:17:20.775Z,1.47
2018-09-23T07:19:48.928Z,6.37
2018-09-23T07:22:17.121Z,2.67
2018-09-23T07:24:45.290Z,1.47
2018-09-23T07:27:13.808Z,2.60
2018-09-23T07:29:42.006Z,2.83
2018-09-23T07:32:10.493Z,3.57
2018-09-23T07:34:39.257Z,4.53
2018-09-23T07:37:07.492Z,1.50
2018-09-23T07:39:35.977Z,1.27
2018-09-23T07:42:04.136Z,1.40
2018-09-23T07:44:32.324Z,2.20
2018-09-23T07:47:00.525Z,1.30
2018-09-23T07:49:28.685Z,1.20
2018-09-23T07:51:56.845Z,3.13
2018-09-23T07:54:25.037Z,1.40
2018-09-23T07:56:53.999Z,1.20
2018-09-23T07:59:22.232Z,2.50
2018-09-23T08:01:50.428Z,3.37
2018-09-23T08:04:19.127Z,3.50
2018-09-23T08:06:47.269Z,3.63
2018-09-23T08:09:15.556Z,4.20
2018-09-23T08:11:43.753Z,1.20
2018-09-23T08:14:12.227Z,1.27
2018-09-23T08:16:40.198Z,1.60
2018-09-23T08:19:08.829Z,1.80
2018-09-23T08:21:37.213Z,1.90
2018-09-23T08:24:05.569Z,1.77
2018-09-23T08:26:33.794Z,2.83
2018-09-23T08:29:07.446Z,1.70
2018-09-23T08:31:35.770Z,1.47
2018-09-23T08:34:03.936Z,1.20
2018-09-23T08:36:32.160Z,1.57
2018-09-23T08:39:00.867Z,1.10
2018-09-23T08:41:29.037Z,1.90
2018-09-23T08:43:57.189Z,1.57
2018-09-23T08:46:25.672Z,1.23
2018-09-23T08:48:53.856Z,1.00
2018-09-23T08:51:22.003Z,1.47
2018-09-23T08:53:50.180Z,1.03
2018-09-23T08:56:18.387Z,1.97
2018-09-23T08:58:46.537Z,2.07
2018-09-23T09:01:15.228Z,1.10
2018-09-23T09:03:43.383Z,1.33
2018-09-23T09:06:11.605Z,2.40
2018-09-23T09:08:39.777Z,1.77
2018-09-23T09:11:07.936Z,2.50
2018-09-23T09:13:36.564Z,1.30
2018-09-23T09:16:04.861Z,3.03
2018-09-23T09:18:36.237Z,1.60
2018-09-23T09:21:04.745Z,1.83
2018-09-23T09:23:33.544Z,1.33
2018-09-23T09:26:01.727Z,2.07
2018-09-23T09:28:29.910Z,1.37
2018-09-23T09:30:58.062Z,2.20
2018-09-23T09:33:26.264Z,1.70
2018-09-23T09:35:54.453Z,1.37
2018-09-23T09:38:22.751Z,5.63
2018-09-23T09:40:51.144Z,2.50
2018-09-23T09:43:19.323Z,1.67
2018-09-23T09:45:47.621Z,1.30
2018-09-23T09:48:15.780Z,1.20
2018-09-23T09:50:43.947Z,1.50
2018-09-23T09:53:12.339Z,2.80
2018-09-23T09:55:40.484Z,1.70
2018-09-23T09:58:08.687Z,1.30
2018-09-23T10:00:36.945Z,3.70
2018-09-23T10:03:09.940Z,2.50
2018-09-23T10:05:38.099Z,6.50
2018-09-23T10:08:06.809Z,1.37
2018-09-23T10:10:34.956Z,2.57
2018-09-23T10:13:03.272Z,2.60
2018-09-23T10:15:31.435Z,2.50
2018-09-23T10:17:59.739Z,2.30
2018-09-23T10:20:28.229Z,2.20
2018-09-23T10:22:56.483Z,2.50
2018-09-23T10:25:24.617Z,1.50
2018-09-23T10:27:53.071Z,5.00
2018-09-23T10:30:21.245Z,1.50
2018-09-23T10:32:49.405Z,2.03
2018-09-23T10:35:17.853Z,1.93
2018-09-23T10:37:45.997Z,2.00
2018-09-23T10:40:14.181Z,2.10
2018-09-23T10:42:42.324Z,5.43
2018-09-23T10:45:10.521Z,3.07
2018-09-23T10:47:38.728Z,2.70
2018-09-23T10:50:06.910Z,4.30
2018-09-23T10:52:35.216Z,1.33
2018-09-23T10:55:03.412Z,1.73
2018-09-23T10:57:31.553Z,1.87
2018-09-23T10:59:59.793Z,2.47
2018-09-23T11:02:27.984Z,2.50
2018-09-23T11:04:56.243Z,2.40
2018-09-23T11:07:24.425Z,4.60
2018-09-23T11:09:52.667Z,5.70
2018-09-23T11:12:20.986Z,4.37
2018-09-23T11:14:49.316Z,4.33
2018-09-23T11:17:17.452Z,5.03
2018-09-23T11:19:45.697Z,4.30
2018-09-23T11:22:13.817Z,8.50
2018-09-23T11:24:42.004Z,9.23
2018-09-23T11:27:10.648Z,8.33
2018-09-23T11:29:38.810Z,10.60
2018-09-23T11:32:07.109Z,8.57
2018-09-23T11:34:35.288Z,9.13
2018-09-23T11:37:03.434Z,6.90
2018-09-23T11:39:31.595Z,3.77
2018-09-23T11:41:59.791Z,3.70
2018-09-23T11:44:27.920Z,3.10
2018-09-23T11:46:56.129Z,4.50
2018-09-23T11:49:24.325Z,2.97
2018-09-23T11:51:52.541Z,4.70
2018-09-23T11:54:20.820Z,3.07
2018-09-23T11:56:48.981Z,1.23
2018-09-23T11:59:17.163Z,2.20
2018-09-23T12:01:45.317Z,1.97
2018-09-23T12:04:13.484Z,1.67
2018-09-23T12:06:41.732Z,5.30
2018-09-23T12:09:11.572Z,3.23
2018-09-23T12:11:39.748Z,5.43
2018-09-23T12:14:07.969Z,4.40
2018-09-23T12:16:36.194Z,4.87
2018-09-23T12:19:04.393Z,1.90
2018-09-23T12:21:32.841Z,3.10
2018-09-23T12:24:00.985Z,2.70
2018-09-23T12:26:29.173Z,2.53
2018-09-23T12:28:57.393Z,3.67
2018-09-23T12:31:25.571Z,6.50
2018-09-23T12:33:53.774Z,4.17
2018-09-23T12:36:21.966Z,2.57
2018-09-23T12:38:50.134Z,3.83
2018-09-23T12:41:18.329Z,4.30
2018-09-23T12:43:46.588Z,4.37
2018-09-23T12:46:14.744Z,3.93
2018-09-23T12:48:42.925Z,6.27
2018-09-23T12:51:11.127Z,4.93
2018-09-23T12:53:39.336Z,5.70
2018-09-23T12:56:07.465Z,3.33
2018-09-23T12:58:35.657Z,6.17
2018-09-23T13:01:03.804Z,7.33
2018-09-23T13:03:32.022Z,7.50
2018-09-23T13:06:00.289Z,6.00
2018-09-23T13:08:28.416Z,4.87
2018-09-23T13:10:56.616Z,4.47
2018-09-23T13:13:24.792Z,4.57
2018-09-23T13:15:53.125Z,9.00
2018-09-23T13:18:21.392Z,8.03
2018-09-23T13:20:49.510Z,2.17
2018-09-23T13:23:17.654Z,6.80
2018-09-23T13:25:45.949Z,4.70
2018-09-23T13:28:15.300Z,5.07
2018-09-23T13:30:43.453Z,5.03
2018-09-23T13:33:11.656Z,3.07
2018-09-23T13:35:39.864Z,4.10
2018-09-23T13:38:08.036Z,4.17
2018-09-23T13:40:36.305Z,5.60
2018-09-23T13:43:04.451Z,2.70
2018-09-23T13:45:32.665Z,3.10
2018-09-23T13:48:00.840Z,2.40
2018-09-23T13:50:29.013Z,2.77
2018-09-23T13:52:57.163Z,3.07
2018-09-23T13:55:25.364Z,2.37
2018-09-23T13:57:53.524Z,4.53
2018-09-23T14:00:21.751Z,4.53
2018-09-23T14:02:49.995Z,4.90
2018-09-23T14:05:18.130Z,3.97
2018-09-23T14:07:46.314Z,6.50
2018-09-23T14:10:14.460Z,4.20
2018-09-23T14:12:42.676Z,3.73
2018-09-23T14:15:10.824Z,3.33
2018-09-23T14:17:39.003Z,6.53
2018-09-23T14:20:07.200Z,3.60
2018-09-23T14:22:35.353Z,4.40
2018-09-23T14:25:03.682Z,6.63
2018-09-23T14:27:31.857Z,5.70
2018-09-23T14:29:59.996Z,4.90
2018-09-23T14:32:28.209Z,7.63
2018-09-23T14:34:56.432Z,4.83
2018-09-23T14:37:24.586Z,5.20
2018-09-23T14:39:52.769Z,8.33
2018-09-23T14:42:20.947Z,6.50
2018-09-23T14:44:49.096Z,6.93
2018-09-23T14:47:17.444Z,5.83
2018-09-23T14:49:45.647Z,5.57
2018-09-23T14:52:13.811Z,8.27
2018-09-23T14:54:42.172Z,12.00
2018-09-23T14:57:10.180Z,14.87
2018-09-23T14:59:38.353Z,8.40
2018-09-23T15:02:06.701Z,9.20
2018-09-23T15:04:34.842Z,8.83
2018-09-23T15:07:02.997Z,12.20
2018-09-23T15:09:32.141Z,9.30
2018-09-23T15:12:00.285Z,8.07
2018-09-23T15:14:28.441Z,8.40
2018-09-23T15:16:56.616Z,7.53
2018-09-23T15:19:25.789Z,8.37
2018-09-23T15:21:53.948Z,6.83
2018-09-23T15:24:22.082Z,11.70
2018-09-23T15:26:50.245Z,11.60
2018-09-23T15:29:18.429Z,11.73
2018-09-23T15:31:46.696Z,11.40
2018-09-23T15:34:14.865Z,7.53
2018-09-23T15:36:43.016Z,12.20
2018-09-23T15:39:11.236Z,6.43
2018-09-23T15:41:39.425Z,11.17
2018-09-23T15:44:07.591Z,8.43
2018-09-23T15:46:35.980Z,9.67
2018-09-23T15:49:04.142Z,13.20
2018-09-23T15:51:32.293Z,11.90
2018-09-23T15:54:00.492Z,6.97
2018-09-23T15:56:28.636Z,13.07
2018-09-23T15:58:56.784Z,7.83
2018-09-23T16:01:25.006Z,10.57
2018-09-23T16:03:53.184Z,12.47
2018-09-23T16:06:21.378Z,12.90
2018-09-23T16:08:49.553Z,9.73
2018-09-23T16:11:17.746Z,15.63
2018-09-23T16:13:45.977Z,15.07
2018-09-23T16:16:14.180Z,11.77
2018-09-23T16:18:42.474Z,11.70
2018-09-23T16:21:10.532Z,8.63
2018-09-23T16:23:38.804Z,14.53
2018-09-23T16:26:07.124Z,9.97
2018-09-23T16:28:35.653Z,6.73
2018-09-23T16:31:03.912Z,11.87
2018-09-23T16:33:32.297Z,13.83
2018-09-23T16:36:00.572Z,10.77
2018-09-23T16:38:29.178Z,13.47
2018-09-23T16:40:57.338Z,11.03
2018-09-23T16:43:25.692Z,25.30
2018-09-23T16:45:53.947Z,8.40
2018-09-23T16:48:22.235Z,13.00
2018-09-23T16:50:50.436Z,11.90
2018-09-23T16:53:18.627Z,15.17
2018-09-23T16:55:46.891Z,10.50
2018-09-23T16:58:15.389Z,12.90
2018-09-23T17:00:44.221Z,12.70
2018-09-23T17:03:12.719Z,8.57
2018-09-23T17:05:40.889Z,8.60
2018-09-23T17:08:10.266Z,14.20
2018-09-23T17:10:38.444Z,4.73
2018-09-23T17:13:06.699Z,10.10
2018-09-23T17:15:34.939Z,8.53
2018-09-23T17:18:03.213Z,3.83
2018-09-23T17:20:31.381Z,2.83
2018-09-23T17:22:59.693Z,4.03
2018-09-23T17:25:27.852Z,6.73
2018-09-23T17:27:56.793Z,11.80
2018-09-23T17:30:25.573Z,13.63
2018-09-23T17:32:53.764Z,13.90
2018-09-23T17:35:22.336Z,18.00
2018-09-23T17:37:50.516Z,12.70
2018-09-23T17:40:18.648Z,19.90
2018-09-23T17:42:46.783Z,18.70
2018-09-23T17:45:15.010Z,22.47
2018-09-23T17:47:43.161Z,13.70
2018-09-23T17:50:11.401Z,15.50
2018-09-23T17:52:39.584Z,20.70
2018-09-23T17:55:07.734Z,17.67
2018-09-23T17:57:36.290Z,19.40
2018-09-23T18:00:04.450Z,17.67
2018-09-23T18:02:32.605Z,8.23
2018-09-23T18:05:00.761Z,11.37
2018-09-23T18:07:28.965Z,16.33
2018-09-23T18:09:57.197Z,13.30
2018-09-23T18:12:25.377Z,11.63
2018-09-23T18:14:53.501Z,11.10
2018-09-23T18:17:21.743Z,11.93
2018-09-23T18:20:56.666Z,11.93
2018-09-23T18:23:25.206Z,19.43
2018-09-23T18:25:53.339Z,10.87
2018-09-23T18:28:21.517Z,5.60
2018-09-23T18:30:49.637Z,15.93
2018-09-23T18:33:17.785Z,7.40
2018-09-23T18:35:45.977Z,15.47
2018-09-23T18:38:14.131Z,11.10
2018-09-23T18:40:42.797Z,8.43
2018-09-23T18:43:11.067Z,10.70
2018-09-23T18:45:39.236Z,14.53
2018-09-23T18:48:07.370Z,10.47
2018-09-23T18:50:35.530Z,11.03
2018-09-23T18:53:09.291Z,13.17
2018-09-23T18:55:42.381Z,10.17
2018-09-23T18:58:10.583Z,14.07
2018-09-23T19:00:38.988Z,13.87
2018-09-23T19:03:07.363Z,18.40
2018-09-23T19:05:35.485Z,15.70
2018-09-23T19:08:03.772Z,20.20
2018-09-23T19:10:32.301Z,15.33
2018-09-23T19:13:05.772Z,9.90
2018-09-23T19:15:34.549Z,13.73
2018-09-23T19:18:02.958Z,13.47
2018-09-23T19:20:31.117Z,14.40
2018-09-23T19:23:04.625Z,10.37
2018-09-23T19:25:32.822Z,20.93
2018-09-23T19:28:01.116Z,10.13
2018-09-23T19:30:29.292Z,11.17
2018-09-23T19:32:57.492Z,9.33
2018-09-23T19:35:25.992Z,6.93
2018-09-23T19:37:54.165Z,5.53
2018-09-23T19:40:22.306Z,10.47
2018-09-23T19:42:50.536Z,12.13
2018-09-23T19:45:18.713Z,5.60
2018-09-23T19:47:46.906Z,9.27
2018-09-23T19:50:15.081Z,10.60
2018-09-23T19:52:43.382Z,7.57
2018-09-23T19:55:11.557Z,8.50
2018-09-23T19:57:39.767Z,4.87
2018-09-23T20:00:08.095Z,3.87
2018-09-23T20:02:38.630Z,5.47
2018-09-23T20:05:06.798Z,7.63
2018-09-23T20:07:34.956Z,4.03
2018-09-23T20:10:03.164Z,4.40
2018-09-23T20:12:31.327Z,2.70
2018-09-23T20:14:59.504Z,6.63
2018-09-23T20:17:27.708Z,6.50
2018-09-23T20:19:55.859Z,4.60
2018-09-23T20:22:24.036Z,3.10
2018-09-23T20:24:54.291Z,6.20
2018-09-23T20:27:22.436Z,8.63
2018-09-23T20:29:50.618Z,3.27
2018-09-23T20:32:18.762Z,3.57
2018-09-23T20:34:46.941Z,5.77
2018-09-23T20:37:15.128Z,3.03
2018-09-23T20:39:43.260Z,7.33
2018-09-23T20:42:11.460Z,6.07
2018-09-23T20:44:39.618Z,6.40
2018-09-23T20:47:07.816Z,6.47
2018-09-23T20:49:35.969Z,4.77
2018-09-23T20:52:06.043Z,19.97
2018-09-23T20:54:34.173Z,7.67
2018-09-23T20:57:02.333Z,7.60
2018-09-23T20:59:30.520Z,11.57
2018-09-23T21:01:58.737Z,8.10
2018-09-23T21:04:26.926Z,8.30
2018-09-23T21:06:55.079Z,7.80
2018-09-23T21:09:23.488Z,7.47
2018-09-23T21:11:51.717Z,6.43
2018-09-23T21:14:19.864Z,6.87
2018-09-23T21:16:48.012Z,18.20
2018-09-23T21:19:16.343Z,9.07
2018-09-23T21:21:49.245Z,13.80
2018-09-23T21:24:17.840Z,12.90
2018-09-23T21:26:46.084Z,10.00
2018-09-23T21:29:14.328Z,11.37
2018-09-23T21:31:42.629Z,11.03
2018-09-23T21:34:10.851Z,15.27
2018-09-23T21:36:39.045Z,12.50
2018-09-23T21:39:08.529Z,18.60
2018-09-23T21:41:36.839Z,10.70
2018-09-23T21:44:05.099Z,16.50
2018-09-23T21:46:33.447Z,16.00
2018-09-23T21:49:01.767Z,10.43
2018-09-23T21:51:29.944Z,17.07
2018-09-23T21:53:58.250Z,10.93
2018-09-23T21:56:26.620Z,16.40
2018-09-23T21:58:54.798Z,13.77
2018-09-23T22:01:22.992Z,13.30
2018-09-23T22:03:51.168Z,18.80
2018-09-23T22:06:19.311Z,15.40
2018-09-23T22:08:47.480Z,22.60
2018-09-23T22:11:15.682Z,16.83
2018-09-23T22:13:49.160Z,20.33
2018-09-23T22:16:17.375Z,18.47
2018-09-23T22:18:48.731Z,15.27
2018-09-23T22:21:17.006Z,17.83
2018-09-23T22:23:45.157Z,19.53
2018-09-23T22:26:13.313Z,29.20
2018-09-23T22:28:41.494Z,21.67
2018-09-23T22:31:09.665Z,15.00
2018-09-23T22:33:37.860Z,16.13
2018-09-23T22:36:06.254Z,15.33
2018-09-23T22:38:34.495Z,19.90
2018-09-23T22:41:02.637Z,18.63
2018-09-23T22:43:30.804Z,18.43
2018-09-23T22:45:58.977Z,18.90
2018-09-23T22:48:27.121Z,18.73
2018-09-23T22:50:55.311Z,19.83
2018-09-23T22:53:23.475Z,22.03
2018-09-23T22:55:51.653Z,19.33
2018-09-23T22:58:19.782Z,19.63
2018-09-23T23:00:47.951Z,22.33
2018-09-23T23:03:16.069Z,14.37
2018-09-23T23:05:44.212Z,19.07
2018-09-23T23:08:12.385Z,22.30
2018-09-23T23:10:40.534Z,19.77
2018-09-23T23:13:08.685Z,21.70
2018-09-23T23:15:36.875Z,24.27
2018-09-23T23:18:05.022Z,19.70
2018-09-23T23:20:33.199Z,20.27
2018-09-23T23:23:01.348Z,24.83
2018-09-23T23:25:29.486Z,17.80
2018-09-23T23:27:57.645Z,18.00
2018-09-23T23:30:25.794Z,15.90
2018-09-23T23:32:53.936Z,20.00
2018-09-23T23:35:22.104Z,23.42
2018-09-23T23:37:50.259Z,29.67
2018-09-23T23:40:18.420Z,22.57
2018-09-23T23:42:46.586Z,19.70
2018-09-23T23:45:14.752Z,28.17
2018-09-23T23:47:42.952Z,33.53
2018-09-23T23:50:11.105Z,21.30
2018-09-23T23:52:39.248Z,20.10
2018-09-23T23:55:07.416Z,23.13
2018-09-23T23:57:35.568Z,17.57
